sensor_id;sensor_type;location;lat;lon;timestamp;temperature;humidity
12911;DHT22;6523;49.758;6.120;2023-06-26T00:01:15;16.90;99.90
12911;DHT22;6523;49.758;6.120;2023-06-26T00:03:40;17.00;99.90
12911;DHT22;6523;49.758;6.120;2023-06-26T00:06:06;16.90;99.90
12911;DHT22;6523;49.758;6.120;2023-06-26T00:08:31;16.90;99.90
12911;DHT22;6523;49.758;6.120;2023-06-26T00:10:57;16.80;99.90
12911;DHT22;6523;49.758;6.120;2023-06-26T00:13:23;16.60;99.90
12911;DHT22;6523;49.758;6.120;2023-06-26T00:15:50;16.60;99.90
12911;DHT22;6523;49.758;6.120;2023-06-26T00:18:16;16.70;99.90
12911;DHT22;6523;49.758;6.120;2023-06-26T00:20:41;16.60;99.90
12911;DHT22;6523;49.758;6.120;2023-06-26T00:23:07;16.50;99.90
12911;DHT22;6523;49.758;6.120;2023-06-26T00:25:33;16.40;99.90
12911;DHT22;6523;49.758;6.120;2023-06-26T00:27:59;16.40;99.90
12911;DHT22;6523;49.758;6.120;2023-06-26T00:30:25;16.50;99.90
12911;DHT22;6523;49.758;6.120;2023-06-26T00:32:50;16.40;99.90
12911;DHT22;6523;49.758;6.120;2023-06-26T00:35:16;16.70;99.90
12911;DHT22;6523;49.758;6.120;2023-06-26T00:37:42;16.80;99.90
12911;DHT22;6523;49.758;6.120;2023-06-26T00:40:08;16.80;99.90
12911;DHT22;6523;49.758;6.120;2023-06-26T00:42:34;16.40;99.90
12911;DHT22;6523;49.758;6.120;2023-06-26T00:45:00;16.60;99.90
12911;DHT22;6523;49.758;6.120;2023-06-26T00:47:26;16.80;99.90
12911;DHT22;6523;49.758;6.120;2023-06-26T00:49:52;16.70;99.90
12911;DHT22;6523;49.758;6.120;2023-06-26T00:52:17;16.60;99.90
12911;DHT22;6523;49.758;6.120;2023-06-26T00:54:43;16.60;99.90
12911;DHT22;6523;49.758;6.120;2023-06-26T00:57:09;16.90;99.90
12911;DHT22;6523;49.758;6.120;2023-06-26T00:59:35;16.80;99.90
12911;DHT22;6523;49.758;6.120;2023-06-26T01:02:01;16.60;99.90
12911;DHT22;6523;49.758;6.120;2023-06-26T01:04:26;16.50;99.90
12911;DHT22;6523;49.758;6.120;2023-06-26T01:06:54;16.50;99.90
12911;DHT22;6523;49.758;6.120;2023-06-26T01:09:21;16.20;99.90
12911;DHT22;6523;49.758;6.120;2023-06-26T01:11:47;16.20;99.90
12911;DHT22;6523;49.758;6.120;2023-06-26T01:14:13;16.20;99.90
12911;DHT22;6523;49.758;6.120;2023-06-26T01:16:40;16.10;99.90
12911;DHT22;6523;49.758;6.120;2023-06-26T01:19:12;16.20;99.90
12911;DHT22;6523;49.758;6.120;2023-06-26T01:21:43;16.40;99.90
12911;DHT22;6523;49.758;6.120;2023-06-26T01:24:17;16.30;99.90
12911;DHT22;6523;49.758;6.120;2023-06-26T01:26:47;16.20;99.90
12911;DHT22;6523;49.758;6.120;2023-06-26T01:29:15;16.20;99.90
12911;DHT22;6523;49.758;6.120;2023-06-26T01:31:42;16.10;99.90
12911;DHT22;6523;49.758;6.120;2023-06-26T01:34:07;16.00;99.90
12911;DHT22;6523;49.758;6.120;2023-06-26T01:36:33;15.90;99.90
12911;DHT22;6523;49.758;6.120;2023-06-26T01:38:59;15.90;99.90
12911;DHT22;6523;49.758;6.120;2023-06-26T01:41:24;15.90;99.90
12911;DHT22;6523;49.758;6.120;2023-06-26T01:44:10;15.70;99.90
12911;DHT22;6523;49.758;6.120;2023-06-26T01:49:49;15.80;99.90
12911;DHT22;6523;49.758;6.120;2023-06-26T01:52:40;15.90;99.90
12911;DHT22;6523;49.758;6.120;2023-06-26T01:55:15;16.00;99.90
12911;DHT22;6523;49.758;6.120;2023-06-26T01:57:44;15.80;99.90
12911;DHT22;6523;49.758;6.120;2023-06-26T02:00:11;15.70;99.90
12911;DHT22;6523;49.758;6.120;2023-06-26T02:02:38;15.70;99.90
12911;DHT22;6523;49.758;6.120;2023-06-26T02:05:03;15.60;99.90
12911;DHT22;6523;49.758;6.120;2023-06-26T02:07:29;16.00;99.90
12911;DHT22;6523;49.758;6.120;2023-06-26T02:09:54;15.70;99.90
12911;DHT22;6523;49.758;6.120;2023-06-26T02:12:20;16.00;99.90
12911;DHT22;6523;49.758;6.120;2023-06-26T02:14:46;16.00;99.90
12911;DHT22;6523;49.758;6.120;2023-06-26T02:17:11;15.80;99.90
12911;DHT22;6523;49.758;6.120;2023-06-26T02:19:37;15.90;99.90
12911;DHT22;6523;49.758;6.120;2023-06-26T02:22:10;15.60;99.90
12911;DHT22;6523;49.758;6.120;2023-06-26T02:24:36;15.60;99.90
12911;DHT22;6523;49.758;6.120;2023-06-26T02:27:01;15.70;99.90
12911;DHT22;6523;49.758;6.120;2023-06-26T02:29:27;15.60;99.90
12911;DHT22;6523;49.758;6.120;2023-06-26T02:31:52;15.60;99.90
12911;DHT22;6523;49.758;6.120;2023-06-26T02:34:18;15.30;99.90
12911;DHT22;6523;49.758;6.120;2023-06-26T02:36:43;15.20;99.90
12911;DHT22;6523;49.758;6.120;2023-06-26T02:39:09;15.40;99.90
12911;DHT22;6523;49.758;6.120;2023-06-26T02:41:34;15.40;99.90
12911;DHT22;6523;49.758;6.120;2023-06-26T02:44:00;15.60;99.90
12911;DHT22;6523;49.758;6.120;2023-06-26T02:46:25;15.80;99.90
12911;DHT22;6523;49.758;6.120;2023-06-26T02:48:51;15.60;99.90
12911;DHT22;6523;49.758;6.120;2023-06-26T02:51:17;15.50;99.90
12911;DHT22;6523;49.758;6.120;2023-06-26T02:53:42;15.40;99.90
12911;DHT22;6523;49.758;6.120;2023-06-26T02:56:08;15.30;99.90
12911;DHT22;6523;49.758;6.120;2023-06-26T02:58:34;15.60;99.90
12911;DHT22;6523;49.758;6.120;2023-06-26T03:00:59;15.70;99.90
12911;DHT22;6523;49.758;6.120;2023-06-26T03:03:25;15.50;99.90
12911;DHT22;6523;49.758;6.120;2023-06-26T03:05:50;15.60;99.90
12911;DHT22;6523;49.758;6.120;2023-06-26T03:08:16;15.80;99.90
12911;DHT22;6523;49.758;6.120;2023-06-26T03:10:41;15.70;99.90
12911;DHT22;6523;49.758;6.120;2023-06-26T03:13:07;15.30;99.90
12911;DHT22;6523;49.758;6.120;2023-06-26T03:15:32;15.30;99.90
12911;DHT22;6523;49.758;6.120;2023-06-26T03:17:58;15.40;99.90
12911;DHT22;6523;49.758;6.120;2023-06-26T03:20:23;15.40;99.90
12911;DHT22;6523;49.758;6.120;2023-06-26T03:22:49;15.70;99.90
12911;DHT22;6523;49.758;6.120;2023-06-26T03:25:15;15.80;99.90
12911;DHT22;6523;49.758;6.120;2023-06-26T03:27:40;15.50;99.90
12911;DHT22;6523;49.758;6.120;2023-06-26T03:30:06;15.50;99.90
12911;DHT22;6523;49.758;6.120;2023-06-26T03:32:32;15.50;99.90
12911;DHT22;6523;49.758;6.120;2023-06-26T03:34:57;15.50;99.90
12911;DHT22;6523;49.758;6.120;2023-06-26T03:37:23;15.60;99.90
12911;DHT22;6523;49.758;6.120;2023-06-26T03:39:48;15.40;99.90
12911;DHT22;6523;49.758;6.120;2023-06-26T03:42:14;15.50;99.90
12911;DHT22;6523;49.758;6.120;2023-06-26T03:44:39;15.50;99.90
12911;DHT22;6523;49.758;6.120;2023-06-26T03:47:05;15.50;99.90
12911;DHT22;6523;49.758;6.120;2023-06-26T03:49:30;15.50;99.90
12911;DHT22;6523;49.758;6.120;2023-06-26T03:51:56;15.40;99.90
12911;DHT22;6523;49.758;6.120;2023-06-26T03:54:21;15.50;99.90
12911;DHT22;6523;49.758;6.120;2023-06-26T03:56:47;15.60;99.90
12911;DHT22;6523;49.758;6.120;2023-06-26T03:59:12;15.70;99.90
12911;DHT22;6523;49.758;6.120;2023-06-26T04:01:38;15.70;99.90
12911;DHT22;6523;49.758;6.120;2023-06-26T04:04:04;15.80;99.90
12911;DHT22;6523;49.758;6.120;2023-06-26T04:06:29;15.80;99.90
12911;DHT22;6523;49.758;6.120;2023-06-26T04:08:57;15.70;99.90
12911;DHT22;6523;49.758;6.120;2023-06-26T04:11:22;15.60;99.90
12911;DHT22;6523;49.758;6.120;2023-06-26T04:13:48;15.60;99.90
12911;DHT22;6523;49.758;6.120;2023-06-26T04:16:13;15.70;99.90
12911;DHT22;6523;49.758;6.120;2023-06-26T04:18:39;15.70;99.90
12911;DHT22;6523;49.758;6.120;2023-06-26T04:21:09;15.70;99.90
12911;DHT22;6523;49.758;6.120;2023-06-26T04:23:36;15.90;99.90
12911;DHT22;6523;49.758;6.120;2023-06-26T04:26:03;16.00;99.90
12911;DHT22;6523;49.758;6.120;2023-06-26T04:28:33;16.10;99.90
12911;DHT22;6523;49.758;6.120;2023-06-26T04:30:59;16.20;99.90
12911;DHT22;6523;49.758;6.120;2023-06-26T04:33:26;16.30;99.90
12911;DHT22;6523;49.758;6.120;2023-06-26T04:35:52;16.50;99.90
12911;DHT22;6523;49.758;6.120;2023-06-26T04:38:19;16.60;99.90
12911;DHT22;6523;49.758;6.120;2023-06-26T04:40:45;16.70;99.90
12911;DHT22;6523;49.758;6.120;2023-06-26T04:43:11;16.90;99.90
12911;DHT22;6523;49.758;6.120;2023-06-26T04:45:36;16.90;99.90
12911;DHT22;6523;49.758;6.120;2023-06-26T04:48:02;17.00;99.90
12911;DHT22;6523;49.758;6.120;2023-06-26T04:50:29;17.20;99.90
12911;DHT22;6523;49.758;6.120;2023-06-26T04:52:56;17.20;99.90
12911;DHT22;6523;49.758;6.120;2023-06-26T04:55:23;17.20;99.90
12911;DHT22;6523;49.758;6.120;2023-06-26T04:57:49;17.30;99.90
12911;DHT22;6523;49.758;6.120;2023-06-26T05:00:15;17.40;99.90
12911;DHT22;6523;49.758;6.120;2023-06-26T05:02:41;17.50;99.90
12911;DHT22;6523;49.758;6.120;2023-06-26T05:05:06;17.70;99.90
12911;DHT22;6523;49.758;6.120;2023-06-26T05:07:32;17.80;99.90
12911;DHT22;6523;49.758;6.120;2023-06-26T05:09:57;17.80;99.90
12911;DHT22;6523;49.758;6.120;2023-06-26T05:12:23;17.90;99.90
12911;DHT22;6523;49.758;6.120;2023-06-26T05:14:48;18.10;99.90
12911;DHT22;6523;49.758;6.120;2023-06-26T05:17:14;18.10;99.90
12911;DHT22;6523;49.758;6.120;2023-06-26T05:19:40;18.20;99.90
12911;DHT22;6523;49.758;6.120;2023-06-26T05:22:06;18.30;99.90
12911;DHT22;6523;49.758;6.120;2023-06-26T05:24:37;18.40;99.90
12911;DHT22;6523;49.758;6.120;2023-06-26T05:27:03;18.50;99.90
12911;DHT22;6523;49.758;6.120;2023-06-26T05:29:30;18.50;99.90
12911;DHT22;6523;49.758;6.120;2023-06-26T05:31:57;18.60;99.90
12911;DHT22;6523;49.758;6.120;2023-06-26T05:34:23;18.70;99.90
12911;DHT22;6523;49.758;6.120;2023-06-26T05:36:51;18.80;99.90
12911;DHT22;6523;49.758;6.120;2023-06-26T05:39:17;19.00;99.90
12911;DHT22;6523;49.758;6.120;2023-06-26T05:41:46;18.80;99.90
12911;DHT22;6523;49.758;6.120;2023-06-26T05:44:11;18.70;99.90
12911;DHT22;6523;49.758;6.120;2023-06-26T05:46:38;18.70;99.90
12911;DHT22;6523;49.758;6.120;2023-06-26T05:49:03;18.70;99.90
12911;DHT22;6523;49.758;6.120;2023-06-26T05:51:29;18.80;99.90
12911;DHT22;6523;49.758;6.120;2023-06-26T05:53:55;18.80;99.90
12911;DHT22;6523;49.758;6.120;2023-06-26T05:56:21;18.90;99.90
12911;DHT22;6523;49.758;6.120;2023-06-26T05:58:47;18.90;99.90
12911;DHT22;6523;49.758;6.120;2023-06-26T06:01:12;19.10;99.90
12911;DHT22;6523;49.758;6.120;2023-06-26T06:03:39;19.10;99.90
12911;DHT22;6523;49.758;6.120;2023-06-26T06:06:05;19.30;99.90
12911;DHT22;6523;49.758;6.120;2023-06-26T06:08:30;19.40;99.90
12911;DHT22;6523;49.758;6.120;2023-06-26T06:10:56;19.40;99.90
12911;DHT22;6523;49.758;6.120;2023-06-26T06:13:22;19.50;99.90
12911;DHT22;6523;49.758;6.120;2023-06-26T06:15:47;19.40;99.90
12911;DHT22;6523;49.758;6.120;2023-06-26T06:18:13;19.40;99.90
12911;DHT22;6523;49.758;6.120;2023-06-26T06:20:38;19.40;99.90
12911;DHT22;6523;49.758;6.120;2023-06-26T06:23:04;19.50;99.90
12911;DHT22;6523;49.758;6.120;2023-06-26T06:25:29;19.50;99.90
12911;DHT22;6523;49.758;6.120;2023-06-26T06:27:55;19.70;99.90
12911;DHT22;6523;49.758;6.120;2023-06-26T06:30:20;19.70;99.90
12911;DHT22;6523;49.758;6.120;2023-06-26T06:32:46;19.80;99.90
12911;DHT22;6523;49.758;6.120;2023-06-26T06:35:16;19.90;99.90
12911;DHT22;6523;49.758;6.120;2023-06-26T06:37:42;20.00;99.90
12911;DHT22;6523;49.758;6.120;2023-06-26T06:40:09;20.00;99.90
12911;DHT22;6523;49.758;6.120;2023-06-26T06:42:36;20.00;99.90
12911;DHT22;6523;49.758;6.120;2023-06-26T06:45:03;20.30;99.90
12911;DHT22;6523;49.758;6.120;2023-06-26T06:47:29;20.30;99.90
12911;DHT22;6523;49.758;6.120;2023-06-26T06:49:54;20.20;99.90
12911;DHT22;6523;49.758;6.120;2023-06-26T06:52:20;20.20;99.90
12911;DHT22;6523;49.758;6.120;2023-06-26T06:54:53;20.20;99.90
12911;DHT22;6523;49.758;6.120;2023-06-26T06:57:20;20.40;99.90
12911;DHT22;6523;49.758;6.120;2023-06-26T06:59:46;20.40;99.90
12911;DHT22;6523;49.758;6.120;2023-06-26T07:02:13;20.60;99.90
12911;DHT22;6523;49.758;6.120;2023-06-26T07:04:38;20.60;99.90
12911;DHT22;6523;49.758;6.120;2023-06-26T07:07:04;20.80;99.90
12911;DHT22;6523;49.758;6.120;2023-06-26T07:09:30;20.80;99.90
12911;DHT22;6523;49.758;6.120;2023-06-26T07:11:55;20.80;99.90
12911;DHT22;6523;49.758;6.120;2023-06-26T07:14:21;20.80;99.90
12911;DHT22;6523;49.758;6.120;2023-06-26T07:16:46;20.80;99.90
12911;DHT22;6523;49.758;6.120;2023-06-26T07:19:12;20.90;99.90
12911;DHT22;6523;49.758;6.120;2023-06-26T07:21:37;21.00;99.90
12911;DHT22;6523;49.758;6.120;2023-06-26T07:24:03;21.30;99.90
12911;DHT22;6523;49.758;6.120;2023-06-26T07:26:28;21.20;99.90
12911;DHT22;6523;49.758;6.120;2023-06-26T07:28:54;21.20;99.90
12911;DHT22;6523;49.758;6.120;2023-06-26T07:31:22;21.10;99.90
12911;DHT22;6523;49.758;6.120;2023-06-26T07:33:47;21.20;99.90
12911;DHT22;6523;49.758;6.120;2023-06-26T07:36:13;21.20;99.90
12911;DHT22;6523;49.758;6.120;2023-06-26T07:38:38;21.40;99.90
12911;DHT22;6523;49.758;6.120;2023-06-26T07:41:04;21.50;99.90
12911;DHT22;6523;49.758;6.120;2023-06-26T07:43:29;21.50;99.90
12911;DHT22;6523;49.758;6.120;2023-06-26T07:45:56;21.50;99.90
12911;DHT22;6523;49.758;6.120;2023-06-26T07:48:24;21.70;99.90
12911;DHT22;6523;49.758;6.120;2023-06-26T07:50:49;21.80;99.90
12911;DHT22;6523;49.758;6.120;2023-06-26T07:53:15;21.80;99.90
12911;DHT22;6523;49.758;6.120;2023-06-26T07:55:41;22.00;99.90
12911;DHT22;6523;49.758;6.120;2023-06-26T07:58:07;22.20;99.90
12911;DHT22;6523;49.758;6.120;2023-06-26T08:00:33;22.10;99.90
12911;DHT22;6523;49.758;6.120;2023-06-26T08:02:58;22.10;99.90
12911;DHT22;6523;49.758;6.120;2023-06-26T08:05:24;21.80;99.90
12911;DHT22;6523;49.758;6.120;2023-06-26T08:07:49;22.20;99.90
12911;DHT22;6523;49.758;6.120;2023-06-26T08:10:15;21.90;99.90
12911;DHT22;6523;49.758;6.120;2023-06-26T08:12:40;22.30;99.90
12911;DHT22;6523;49.758;6.120;2023-06-26T08:15:08;22.30;99.90
12911;DHT22;6523;49.758;6.120;2023-06-26T08:17:35;22.00;99.90
12911;DHT22;6523;49.758;6.120;2023-06-26T08:20:01;22.10;99.90
12911;DHT22;6523;49.758;6.120;2023-06-26T08:22:27;22.50;99.90
12911;DHT22;6523;49.758;6.120;2023-06-26T08:24:53;23.00;99.90
12911;DHT22;6523;49.758;6.120;2023-06-26T08:27:18;22.50;99.90
12911;DHT22;6523;49.758;6.120;2023-06-26T08:29:44;22.30;99.90
12911;DHT22;6523;49.758;6.120;2023-06-26T08:32:09;22.50;99.90
12911;DHT22;6523;49.758;6.120;2023-06-26T08:34:35;22.80;99.90
12911;DHT22;6523;49.758;6.120;2023-06-26T08:37:00;22.80;99.90
12911;DHT22;6523;49.758;6.120;2023-06-26T08:39:26;23.00;99.90
12911;DHT22;6523;49.758;6.120;2023-06-26T08:41:52;23.10;99.90
12911;DHT22;6523;49.758;6.120;2023-06-26T08:44:18;23.00;99.90
12911;DHT22;6523;49.758;6.120;2023-06-26T08:46:43;23.00;99.90
12911;DHT22;6523;49.758;6.120;2023-06-26T08:49:21;23.10;99.90
12911;DHT22;6523;49.758;6.120;2023-06-26T08:51:59;22.60;99.90
12911;DHT22;6523;49.758;6.120;2023-06-26T08:54:42;22.40;99.90
12911;DHT22;6523;49.758;6.120;2023-06-26T08:57:10;22.10;99.90
12911;DHT22;6523;49.758;6.120;2023-06-26T08:59:35;21.80;99.90
12911;DHT22;6523;49.758;6.120;2023-06-26T09:02:01;22.70;99.90
12911;DHT22;6523;49.758;6.120;2023-06-26T09:04:28;22.90;99.90
12911;DHT22;6523;49.758;6.120;2023-06-26T09:06:53;22.80;99.90
12911;DHT22;6523;49.758;6.120;2023-06-26T09:09:19;22.80;98.40
12911;DHT22;6523;49.758;6.120;2023-06-26T09:11:45;22.90;99.90
12911;DHT22;6523;49.758;6.120;2023-06-26T09:14:12;23.40;99.90
12911;DHT22;6523;49.758;6.120;2023-06-26T09:16:41;23.60;91.80
12911;DHT22;6523;49.758;6.120;2023-06-26T09:19:11;23.30;81.30
12911;DHT22;6523;49.758;6.120;2023-06-26T09:21:41;23.10;64.30
12911;DHT22;6523;49.758;6.120;2023-06-26T09:24:08;23.30;71.00
12911;DHT22;6523;49.758;6.120;2023-06-26T09:26:36;23.40;60.80
12911;DHT22;6523;49.758;6.120;2023-06-26T09:29:02;23.70;58.60
12911;DHT22;6523;49.758;6.120;2023-06-26T09:31:29;23.60;58.00
12911;DHT22;6523;49.758;6.120;2023-06-26T09:34:00;23.70;52.60
12911;DHT22;6523;49.758;6.120;2023-06-26T09:36:28;23.60;55.60
12911;DHT22;6523;49.758;6.120;2023-06-26T09:38:54;23.60;39.30
12911;DHT22;6523;49.758;6.120;2023-06-26T09:41:20;23.30;40.30
12911;DHT22;6523;49.758;6.120;2023-06-26T09:43:50;23.40;29.00
12911;DHT22;6523;49.758;6.120;2023-06-26T09:46:37;23.50;27.10
12911;DHT22;6523;49.758;6.120;2023-06-26T09:49:06;24.40;28.20
12911;DHT22;6523;49.758;6.120;2023-06-26T09:51:33;24.20;18.90
12911;DHT22;6523;49.758;6.120;2023-06-26T09:54:00;24.30;18.70
12911;DHT22;6523;49.758;6.120;2023-06-26T09:56:27;24.40;18.40
12911;DHT22;6523;49.758;6.120;2023-06-26T09:58:57;24.00;21.00
12911;DHT22;6523;49.758;6.120;2023-06-26T10:01:27;24.40;16.70
12911;DHT22;6523;49.758;6.120;2023-06-26T10:03:54;23.90;9.90
12911;DHT22;6523;49.758;6.120;2023-06-26T10:06:27;24.30;9.70
12911;DHT22;6523;49.758;6.120;2023-06-26T10:08:55;24.30;5.60
12911;DHT22;6523;49.758;6.120;2023-06-26T10:11:22;24.80;6.50
12911;DHT22;6523;49.758;6.120;2023-06-26T10:13:50;24.20;1.00
12911;DHT22;6523;49.758;6.120;2023-06-26T10:16:22;23.90;1.00
12911;DHT22;6523;49.758;6.120;2023-06-26T10:18:55;24.80;6.50
12911;DHT22;6523;49.758;6.120;2023-06-26T10:21:23;24.80;1.10
12911;DHT22;6523;49.758;6.120;2023-06-26T10:23:50;24.80;1.00
12911;DHT22;6523;49.758;6.120;2023-06-26T10:26:16;24.90;1.00
12911;DHT22;6523;49.758;6.120;2023-06-26T10:28:47;24.90;1.00
12911;DHT22;6523;49.758;6.120;2023-06-26T10:31:22;24.60;1.00
12911;DHT22;6523;49.758;6.120;2023-06-26T10:33:49;24.20;1.00
12911;DHT22;6523;49.758;6.120;2023-06-26T10:36:16;24.10;1.00
12911;DHT22;6523;49.758;6.120;2023-06-26T10:38:57;24.80;1.00
12911;DHT22;6523;49.758;6.120;2023-06-26T10:41:24;24.30;1.00
12911;DHT22;6523;49.758;6.120;2023-06-26T10:44:11;24.70;1.00
12911;DHT22;6523;49.758;6.120;2023-06-26T10:46:56;24.30;1.00
12911;DHT22;6523;49.758;6.120;2023-06-26T10:49:29;24.30;1.00
12911;DHT22;6523;49.758;6.120;2023-06-26T10:52:01;24.50;1.00
12911;DHT22;6523;49.758;6.120;2023-06-26T10:54:30;24.60;1.00
12911;DHT22;6523;49.758;6.120;2023-06-26T10:56:56;24.40;1.00
12911;DHT22;6523;49.758;6.120;2023-06-26T10:59:26;24.20;1.00
12911;DHT22;6523;49.758;6.120;2023-06-26T11:02:04;25.00;1.00
12911;DHT22;6523;49.758;6.120;2023-06-26T11:04:47;25.50;1.00
12911;DHT22;6523;49.758;6.120;2023-06-26T11:07:22;25.60;1.00
12911;DHT22;6523;49.758;6.120;2023-06-26T11:10:08;26.00;1.00
12911;DHT22;6523;49.758;6.120;2023-06-26T11:12:37;25.80;1.00
12911;DHT22;6523;49.758;6.120;2023-06-26T11:15:13;25.00;1.00
12911;DHT22;6523;49.758;6.120;2023-06-26T11:17:40;24.50;1.00
12911;DHT22;6523;49.758;6.120;2023-06-26T11:20:08;25.00;1.00
12911;DHT22;6523;49.758;6.120;2023-06-26T11:22:36;26.00;1.00
12911;DHT22;6523;49.758;6.120;2023-06-26T11:25:02;26.00;1.00
12911;DHT22;6523;49.758;6.120;2023-06-26T11:27:46;25.80;1.00
12911;DHT22;6523;49.758;6.120;2023-06-26T11:30:23;26.30;1.00
12911;DHT22;6523;49.758;6.120;2023-06-26T11:32:49;25.80;1.00
12911;DHT22;6523;49.758;6.120;2023-06-26T11:35:25;25.60;1.00
12911;DHT22;6523;49.758;6.120;2023-06-26T11:37:56;25.70;1.00
12911;DHT22;6523;49.758;6.120;2023-06-26T11:40:23;25.60;1.00
12911;DHT22;6523;49.758;6.120;2023-06-26T11:42:53;24.90;1.00
12911;DHT22;6523;49.758;6.120;2023-06-26T11:45:19;25.60;1.00
12911;DHT22;6523;49.758;6.120;2023-06-26T11:47:45;25.10;1.00
12911;DHT22;6523;49.758;6.120;2023-06-26T11:50:17;25.10;1.00
12911;DHT22;6523;49.758;6.120;2023-06-26T11:52:43;25.30;1.00
12911;DHT22;6523;49.758;6.120;2023-06-26T11:55:09;24.70;1.00
12911;DHT22;6523;49.758;6.120;2023-06-26T11:57:36;24.70;1.00
12911;DHT22;6523;49.758;6.120;2023-06-26T12:00:12;25.20;1.00
12911;DHT22;6523;49.758;6.120;2023-06-26T12:02:38;24.50;1.00
12911;DHT22;6523;49.758;6.120;2023-06-26T12:05:04;24.80;1.00
12911;DHT22;6523;49.758;6.120;2023-06-26T12:07:30;24.60;1.00
12911;DHT22;6523;49.758;6.120;2023-06-26T12:09:56;25.00;1.00
12911;DHT22;6523;49.758;6.120;2023-06-26T12:12:24;25.50;1.00
12911;DHT22;6523;49.758;6.120;2023-06-26T12:14:51;24.70;1.00
12911;DHT22;6523;49.758;6.120;2023-06-26T12:17:17;24.60;1.00
12911;DHT22;6523;49.758;6.120;2023-06-26T12:19:47;25.20;1.00
12911;DHT22;6523;49.758;6.120;2023-06-26T12:22:17;25.50;1.00
12911;DHT22;6523;49.758;6.120;2023-06-26T12:24:43;26.30;1.00
12911;DHT22;6523;49.758;6.120;2023-06-26T12:27:10;26.00;1.00
12911;DHT22;6523;49.758;6.120;2023-06-26T12:29:40;25.30;1.00
12911;DHT22;6523;49.758;6.120;2023-06-26T12:32:10;25.90;1.00
12911;DHT22;6523;49.758;6.120;2023-06-26T12:34:38;26.40;1.00
12911;DHT22;6523;49.758;6.120;2023-06-26T12:37:10;25.80;1.00
12911;DHT22;6523;49.758;6.120;2023-06-26T12:39:49;26.20;1.00
12911;DHT22;6523;49.758;6.120;2023-06-26T12:42:24;26.00;1.00
12911;DHT22;6523;49.758;6.120;2023-06-26T12:44:50;25.70;1.00
12911;DHT22;6523;49.758;6.120;2023-06-26T12:47:17;26.00;1.00
12911;DHT22;6523;49.758;6.120;2023-06-26T12:49:50;25.80;1.00
12911;DHT22;6523;49.758;6.120;2023-06-26T12:52:16;25.70;1.00
12911;DHT22;6523;49.758;6.120;2023-06-26T12:54:44;26.00;1.00
12911;DHT22;6523;49.758;6.120;2023-06-26T12:57:10;25.90;1.00
12911;DHT22;6523;49.758;6.120;2023-06-26T12:59:37;26.00;1.00
12911;DHT22;6523;49.758;6.120;2023-06-26T13:02:03;27.00;1.00
12911;DHT22;6523;49.758;6.120;2023-06-26T13:04:29;27.50;1.00
12911;DHT22;6523;49.758;6.120;2023-06-26T13:06:55;27.50;1.00
12911;DHT22;6523;49.758;6.120;2023-06-26T13:09:24;26.50;1.00
12911;DHT22;6523;49.758;6.120;2023-06-26T13:11:51;25.80;1.00
12911;DHT22;6523;49.758;6.120;2023-06-26T13:14:16;25.50;1.00
12911;DHT22;6523;49.758;6.120;2023-06-26T13:16:42;25.00;1.00
12911;DHT22;6523;49.758;6.120;2023-06-26T13:19:08;24.80;1.00
12911;DHT22;6523;49.758;6.120;2023-06-26T13:21:34;25.20;1.00
12911;DHT22;6523;49.758;6.120;2023-06-26T13:24:00;25.00;1.00
12911;DHT22;6523;49.758;6.120;2023-06-26T13:26:26;25.40;1.00
12911;DHT22;6523;49.758;6.120;2023-06-26T13:28:54;24.80;1.00
12911;DHT22;6523;49.758;6.120;2023-06-26T13:31:19;25.20;1.00
12911;DHT22;6523;49.758;6.120;2023-06-26T13:33:46;24.70;1.00
12911;DHT22;6523;49.758;6.120;2023-06-26T13:36:14;24.90;1.00
12911;DHT22;6523;49.758;6.120;2023-06-26T13:38:40;25.30;1.00
12911;DHT22;6523;49.758;6.120;2023-06-26T13:41:05;25.70;1.00
12911;DHT22;6523;49.758;6.120;2023-06-26T13:43:31;25.30;1.00
12911;DHT22;6523;49.758;6.120;2023-06-26T13:45:57;24.90;1.00
12911;DHT22;6523;49.758;6.120;2023-06-26T13:48:23;25.30;1.00
12911;DHT22;6523;49.758;6.120;2023-06-26T13:50:50;26.10;1.00
12911;DHT22;6523;49.758;6.120;2023-06-26T13:53:15;25.60;1.00
12911;DHT22;6523;49.758;6.120;2023-06-26T13:55:41;25.60;1.00
12911;DHT22;6523;49.758;6.120;2023-06-26T13:58:10;26.10;1.00
12911;DHT22;6523;49.758;6.120;2023-06-26T14:00:37;25.30;1.00
12911;DHT22;6523;49.758;6.120;2023-06-26T14:03:04;25.80;1.00
12911;DHT22;6523;49.758;6.120;2023-06-26T14:05:30;26.00;1.00
12911;DHT22;6523;49.758;6.120;2023-06-26T14:07:56;25.40;1.00
12911;DHT22;6523;49.758;6.120;2023-06-26T14:10:22;26.60;1.00
12911;DHT22;6523;49.758;6.120;2023-06-26T14:12:48;26.40;1.00
12911;DHT22;6523;49.758;6.120;2023-06-26T14:15:14;26.00;1.00
12911;DHT22;6523;49.758;6.120;2023-06-26T14:17:39;25.70;1.00
12911;DHT22;6523;49.758;6.120;2023-06-26T14:20:09;26.20;1.00
12911;DHT22;6523;49.758;6.120;2023-06-26T14:22:42;27.10;1.00
12911;DHT22;6523;49.758;6.120;2023-06-26T14:25:10;26.50;1.00
12911;DHT22;6523;49.758;6.120;2023-06-26T14:27:36;26.40;1.00
12911;DHT22;6523;49.758;6.120;2023-06-26T14:30:03;26.90;1.00
12911;DHT22;6523;49.758;6.120;2023-06-26T14:32:29;25.70;1.00
12911;DHT22;6523;49.758;6.120;2023-06-26T14:34:56;26.20;1.00
12911;DHT22;6523;49.758;6.120;2023-06-26T14:37:21;25.30;1.00
12911;DHT22;6523;49.758;6.120;2023-06-26T14:39:47;25.10;1.00
12911;DHT22;6523;49.758;6.120;2023-06-26T14:42:12;25.30;1.00
12911;DHT22;6523;49.758;6.120;2023-06-26T14:44:38;24.40;1.00
12911;DHT22;6523;49.758;6.120;2023-06-26T14:47:04;24.40;1.00
12911;DHT22;6523;49.758;6.120;2023-06-26T14:49:30;24.70;1.00
12911;DHT22;6523;49.758;6.120;2023-06-26T14:51:55;25.50;1.00
12911;DHT22;6523;49.758;6.120;2023-06-26T14:54:21;25.10;1.00
12911;DHT22;6523;49.758;6.120;2023-06-26T14:56:49;24.60;1.00
12911;DHT22;6523;49.758;6.120;2023-06-26T14:59:15;24.60;1.00
12911;DHT22;6523;49.758;6.120;2023-06-26T15:01:40;24.70;1.00
12911;DHT22;6523;49.758;6.120;2023-06-26T15:04:06;25.00;1.00
12911;DHT22;6523;49.758;6.120;2023-06-26T15:06:32;23.90;1.00
12911;DHT22;6523;49.758;6.120;2023-06-26T15:08:58;24.00;1.00
12911;DHT22;6523;49.758;6.120;2023-06-26T15:11:24;25.50;1.00
12911;DHT22;6523;49.758;6.120;2023-06-26T15:13:49;26.40;1.00
12911;DHT22;6523;49.758;6.120;2023-06-26T15:16:15;26.10;1.00
12911;DHT22;6523;49.758;6.120;2023-06-26T15:18:40;25.70;1.00
12911;DHT22;6523;49.758;6.120;2023-06-26T15:21:06;24.20;1.00
12911;DHT22;6523;49.758;6.120;2023-06-26T15:23:33;23.90;1.00
12911;DHT22;6523;49.758;6.120;2023-06-26T15:25:58;24.00;1.00
12911;DHT22;6523;49.758;6.120;2023-06-26T15:28:24;24.80;1.00
12911;DHT22;6523;49.758;6.120;2023-06-26T15:30:49;25.50;1.00
12911;DHT22;6523;49.758;6.120;2023-06-26T15:33:15;26.10;1.00
12911;DHT22;6523;49.758;6.120;2023-06-26T15:35:40;25.10;1.00
12911;DHT22;6523;49.758;6.120;2023-06-26T15:38:06;25.50;1.00
12911;DHT22;6523;49.758;6.120;2023-06-26T15:40:31;25.50;1.00
12911;DHT22;6523;49.758;6.120;2023-06-26T15:42:57;26.10;1.00
12911;DHT22;6523;49.758;6.120;2023-06-26T15:45:23;26.00;1.00
12911;DHT22;6523;49.758;6.120;2023-06-26T15:47:51;25.70;1.00
12911;DHT22;6523;49.758;6.120;2023-06-26T15:50:17;25.60;1.00
12911;DHT22;6523;49.758;6.120;2023-06-26T15:52:45;25.50;1.00
12911;DHT22;6523;49.758;6.120;2023-06-26T15:55:11;24.60;1.00